Time;durP1;ratioP1;P1;durP2;ratioP2;P2;SDS_P1;SDS_P2;PMS_P1;PMS_P2;Temp;Humidity;BMP_temperature;BMP_pressure;BME280_temperature;BME280_humidity;BME280_pressure;Samples;Min_cycle;Max_cycle;Signal;HPM_P1;HPM_P2
2023/11/04 00:00:05;;;;;;;9.57;9.17;;;7.40;1.00;;;;;;5069980;28;20796;-78
2023/11/04 00:02:34;;;;;;;9.30;8.90;;;7.40;1.00;;;;;;5077293;28;21359;-77
2023/11/04 00:05:02;;;;;;;9.33;8.83;;;7.40;1.00;;;;;;5070803;28;20927;-79
2023/11/04 00:07:31;;;;;;;9.40;9.10;;;7.40;1.00;;;;;;5073117;28;20870;-79
2023/11/04 00:10:00;;;;;;;9.40;9.00;;;7.30;1.00;;;;;;5072900;28;20479;-79
2023/11/04 00:12:29;;;;;;;10.03;9.53;;;7.30;1.00;;;;;;5073749;28;20450;-81
2023/11/04 00:14:58;;;;;;;9.03;8.83;;;7.30;1.00;;;;;;5073204;28;20947;-78
2023/11/04 00:17:26;;;;;;;9.60;9.23;;;7.20;1.00;;;;;;5077692;28;20455;-78
2023/11/04 00:19:55;;;;;;;8.77;8.57;;;7.20;1.00;;;;;;5078572;28;20471;-78
2023/11/04 00:22:23;;;;;;;8.27;8.07;;;7.20;1.00;;;;;;5080169;28;20447;-81
2023/11/04 00:24:53;;;;;;;8.00;7.90;;;7.20;1.00;;;;;;5078803;28;20514;-79
2023/11/04 00:27:22;;;;;;;8.83;8.47;;;7.20;1.00;;;;;;5074118;28;20455;-81
2023/11/04 00:29:51;;;;;;;8.73;8.40;;;7.20;1.00;;;;;;5077903;28;20510;-79
2023/11/04 00:32:22;;;;;;;9.30;8.90;;;7.30;1.00;;;;;;5079229;28;20478;-78
2023/11/04 00:34:50;;;;;;;8.77;8.30;;;7.20;1.00;;;;;;5074176;28;20454;-77
2023/11/04 00:37:18;;;;;;;8.30;8.10;;;7.30;1.00;;;;;;5079098;28;20450;-80
2023/11/04 00:39:50;;;;;;;8.40;8.17;;;7.30;1.00;;;;;;5073126;28;20510;-78
2023/11/04 00:42:18;;;;;;;8.77;8.50;;;7.30;1.00;;;;;;5078056;28;20453;-81
2023/11/04 00:44:46;;;;;;;8.47;8.20;;;7.40;1.00;;;;;;5076044;28;20485;-77
2023/11/04 00:47:16;;;;;;;8.40;8.20;;;7.40;1.00;;;;;;5076300;28;20881;-79
2023/11/04 00:49:44;;;;;;;9.50;9.03;;;7.30;1.00;;;;;;5073231;28;20463;-80
2023/11/04 00:52:12;;;;;;;9.90;9.30;;;7.30;1.00;;;;;;5075491;28;20457;-79
2023/11/04 00:54:40;;;;;;;8.40;8.10;;;7.30;1.00;;;;;;5075017;28;20878;-80
2023/11/04 00:57:09;;;;;;;8.33;8.13;;;7.40;1.00;;;;;;5070844;28;20462;-80
2023/11/04 00:59:37;;;;;;;8.83;8.53;;;7.40;1.00;;;;;;5077278;28;20473;-81
2023/11/04 01:02:05;;;;;;;8.60;8.40;;;7.40;1.00;;;;;;5077335;28;20740;-80
2023/11/04 01:04:35;;;;;;;9.60;8.80;;;7.40;1.00;;;;;;5080222;28;20570;-78
2023/11/04 01:07:05;;;;;;;8.60;8.30;;;7.30;1.00;;;;;;5080655;28;20983;-77
2023/11/04 01:09:33;;;;;;;8.80;8.50;;;7.30;1.00;;;;;;5079868;28;20509;-81
2023/11/04 01:12:04;;;;;;;9.43;9.10;;;7.40;1.00;;;;;;5080883;28;20462;-80
2023/11/04 01:14:33;;;;;;;9.03;8.70;;;7.40;1.00;;;;;;5079488;28;20457;-79
2023/11/04 01:17:01;;;;;;;9.10;8.90;;;7.40;1.00;;;;;;5078616;28;21246;-77
2023/11/04 01:19:29;;;;;;;8.13;8.03;;;7.40;1.00;;;;;;5075305;28;20471;-78
2023/11/04 01:21:59;;;;;;;8.73;8.53;;;7.40;1.00;;;;;;5075546;28;20486;-78
2023/11/04 01:24:28;;;;;;;8.90;8.70;;;7.40;1.00;;;;;;5076433;28;20467;-78
2023/11/04 01:26:56;;;;;;;8.80;8.40;;;7.40;1.00;;;;;;5077679;28;20466;-80
2023/11/04 01:29:25;;;;;;;9.20;8.80;;;7.30;1.00;;;;;;5073633;28;20505;-78
2023/11/04 01:31:53;;;;;;;7.90;7.70;;;7.30;1.00;;;;;;5074110;28;20461;-78
2023/11/04 01:34:21;;;;;;;7.70;7.40;;;7.40;1.00;;;;;;5075199;28;20451;-79
2023/11/04 01:36:50;;;;;;;7.70;7.50;;;7.30;1.00;;;;;;5076689;28;20447;-79
2023/11/04 01:39:20;;;;;;;8.50;8.00;;;7.30;1.00;;;;;;5074569;28;21456;-77
2023/11/04 01:41:48;;;;;;;8.27;7.97;;;7.40;1.00;;;;;;5074712;28;20505;-80
2023/11/04 01:44:16;;;;;;;7.97;7.67;;;7.30;1.00;;;;;;5076214;28;20839;-79
2023/11/04 01:46:45;;;;;;;8.10;7.87;;;7.30;1.00;;;;;;5074818;28;20765;-78
2023/11/04 01:49:13;;;;;;;8.50;8.20;;;7.30;1.00;;;;;;5078149;28;20458;-80
2023/11/04 01:51:42;;;;;;;8.13;7.87;;;7.30;1.00;;;;;;5072822;28;20461;-80
2023/11/04 01:54:11;;;;;;;9.20;8.63;;;7.30;1.00;;;;;;5073732;28;20443;-80
2023/11/04 01:56:41;;;;;;;8.50;8.30;;;7.20;1.00;;;;;;5077948;28;20457;-79
2023/11/04 01:59:09;;;;;;;7.90;7.63;;;7.20;1.00;;;;;;5071367;28;20988;-78
2023/11/04 02:01:40;;;;;;;8.20;7.60;;;7.20;1.00;;;;;;5076103;28;20455;-79
2023/11/04 02:04:09;;;;;;;7.63;7.53;;;7.10;1.00;;;;;;5075751;28;20459;-78
2023/11/04 02:06:37;;;;;;;8.47;8.17;;;7.10;1.00;;;;;;5072506;28;20486;-82
2023/11/04 02:09:06;;;;;;;7.87;7.67;;;7.10;1.00;;;;;;5070798;28;20463;-80
2023/11/04 02:11:34;;;;;;;8.13;7.93;;;7.10;1.00;;;;;;5076448;28;20451;-78
2023/11/04 02:14:08;;;;;;;8.47;8.10;;;7.10;1.00;;;;;;5076697;28;20459;-80
2023/11/04 02:16:36;;;;;;;8.10;7.90;;;7.10;1.00;;;;;;5079935;28;20464;-80
2023/11/04 02:19:05;;;;;;;8.83;8.43;;;7.10;1.00;;;;;;5079815;28;20520;-82
2023/11/04 02:21:35;;;;;;;7.80;7.60;;;7.10;1.00;;;;;;5079309;28;20485;-78
2023/11/04 02:24:04;;;;;;;8.00;7.80;;;7.00;1.00;;;;;;5074196;28;20455;-80
2023/11/04 02:26:32;;;;;;;8.40;8.20;;;7.10;1.00;;;;;;5072798;28;20475;-79
2023/11/04 02:29:00;;;;;;;8.60;8.30;;;7.10;1.00;;;;;;5084488;28;20924;-81
2023/11/04 02:31:29;;;;;;;8.37;7.87;;;7.00;1.00;;;;;;5080989;28;20484;-81
2023/11/04 02:33:57;;;;;;;7.90;7.70;;;7.00;1.00;;;;;;5075642;28;20455;-81
2023/11/04 02:36:25;;;;;;;8.90;8.50;;;7.10;1.00;;;;;;5074852;28;20522;-78
2023/11/04 02:38:55;;;;;;;8.17;7.90;;;7.10;1.00;;;;;;5075611;28;20495;-79
2023/11/04 02:41:23;;;;;;;8.00;7.80;;;7.10;1.00;;;;;;5075965;28;20488;-80
2023/11/04 02:43:51;;;;;;;7.93;7.63;;;7.00;1.00;;;;;;5076526;28;20465;-78
2023/11/04 02:46:19;;;;;;;7.80;7.70;;;7.10;1.00;;;;;;5074947;28;21032;-82
2023/11/04 02:48:48;;;;;;;7.87;7.60;;;7.00;1.00;;;;;;5073500;28;20461;-81
2023/11/04 02:51:16;;;;;;;8.17;7.97;;;7.20;1.00;;;;;;5069801;28;20474;-81
2023/11/04 02:53:44;;;;;;;8.00;7.80;;;7.20;1.00;;;;;;5078217;28;20519;-80
2023/11/04 02:56:16;;;;;;;7.80;7.70;;;7.20;1.00;;;;;;5078072;28;20988;-81
2023/11/04 02:58:44;;;;;;;8.33;7.93;;;7.30;1.00;;;;;;5073737;28;20469;-80
2023/11/04 03:01:12;;;;;;;8.57;8.27;;;7.30;1.00;;;;;;5072219;28;20899;-80
2023/11/04 03:03:41;;;;;;;7.90;7.80;;;7.30;1.00;;;;;;5073735;28;20511;-79
2023/11/04 03:06:09;;;;;;;8.40;8.20;;;7.30;1.00;;;;;;5071739;28;20479;-80
2023/11/04 03:08:37;;;;;;;7.90;7.70;;;7.30;1.00;;;;;;5070980;28;20480;-80
2023/11/04 03:11:06;;;;;;;8.10;7.90;;;7.30;1.00;;;;;;5072652;28;20568;-77
2023/11/04 03:13:35;;;;;;;7.67;7.57;;;7.40;1.00;;;;;;5076152;28;20895;-80
2023/11/04 03:16:04;;;;;;;7.43;7.23;;;7.30;1.00;;;;;;5070627;28;20451;-79
2023/11/04 03:18:32;;;;;;;7.77;7.57;;;7.20;1.00;;;;;;5075585;28;20449;-81
2023/11/04 03:21:07;;;;;;;8.20;7.90;;;7.20;1.00;;;;;;5073708;28;20479;-81
2023/11/04 03:23:35;;;;;;;7.80;7.70;;;7.20;1.00;;;;;;5072007;28;20489;-81
2023/11/04 03:26:04;;;;;;;8.17;7.80;;;7.20;1.00;;;;;;5071845;28;20467;-79
2023/11/04 03:28:33;;;;;;;7.87;7.60;;;7.20;1.00;;;;;;5071490;28;20462;-80
2023/11/04 03:31:03;;;;;;;8.23;8.03;;;7.20;1.00;;;;;;5076351;28;20484;-81
2023/11/04 03:33:32;;;;;;;8.30;8.10;;;7.30;1.00;;;;;;5073004;28;20462;-80
2023/11/04 03:36:00;;;;;;;7.87;7.77;;;7.30;1.00;;;;;;5074286;28;20455;-80
2023/11/04 03:38:28;;;;;;;7.90;7.80;;;7.30;1.00;;;;;;5074080;28;20451;-80
2023/11/04 03:40:56;;;;;;;8.20;8.10;;;7.30;1.00;;;;;;5071408;28;20470;-77
2023/11/04 03:43:25;;;;;;;7.90;7.70;;;7.30;1.00;;;;;;5075907;28;20543;-79
2023/11/04 03:45:53;;;;;;;8.47;8.27;;;7.20;1.00;;;;;;5072045;28;20470;-79
2023/11/04 03:48:23;;;;;;;7.80;7.63;;;7.20;1.00;;;;;;5072288;28;20454;-78
2023/11/04 03:50:52;;;;;;;8.40;8.20;;;7.20;1.00;;;;;;5077100;28;20962;-80
2023/11/04 03:53:20;;;;;;;7.90;7.80;;;7.30;1.00;;;;;;5073231;28;20450;-79
2023/11/04 03:55:48;;;;;;;7.73;7.63;;;7.20;1.00;;;;;;5070842;28;20458;-80
2023/11/04 03:58:16;;;;;;;8.00;7.80;;;7.10;1.00;;;;;;5072335;28;20457;-78
2023/11/04 04:00:44;;;;;;;8.17;7.90;;;7.20;1.00;;;;;;5072006;28;20502;-78
2023/11/04 04:03:12;;;;;;;7.93;7.83;;;7.30;1.00;;;;;;5070596;28;20447;-77
2023/11/04 04:05:42;;;;;;;8.10;7.90;;;7.20;1.00;;;;;;5070487;28;20460;-79
2023/11/04 04:08:10;;;;;;;8.37;8.17;;;7.20;1.00;;;;;;5066963;28;20451;-79
2023/11/04 04:10:39;;;;;;;8.40;8.20;;;7.20;1.00;;;;;;5073733;28;20476;-79
2023/11/04 04:13:08;;;;;;;8.10;8.00;;;7.20;1.00;;;;;;5071972;28;20454;-78
2023/11/04 04:15:36;;;;;;;8.60;8.40;;;7.20;1.00;;;;;;5074172;28;20549;-78
2023/11/04 04:18:04;;;;;;;8.10;8.00;;;7.20;4.90;;;;;;5071186;28;20447;-78
2023/11/04 04:20:32;;;;;;;8.70;8.40;;;7.20;1.00;;;;;;5073926;28;20474;-78
2023/11/04 04:23:02;;;;;;;8.30;8.10;;;7.10;15.50;;;;;;5070419;28;20494;-82
2023/11/04 04:25:30;;;;;;;8.43;8.23;;;7.10;39.90;;;;;;5075652;28;20450;-79
2023/11/04 04:27:59;;;;;;;8.43;8.23;;;7.10;10.80;;;;;;5072070;28;20474;-79
2023/11/04 04:30:27;;;;;;;9.07;8.87;;;7.20;1.00;;;;;;5071943;28;20473;-79
2023/11/04 04:32:55;;;;;;;9.00;8.80;;;7.30;1.00;;;;;;5074681;28;20515;-81
2023/11/04 04:35:23;;;;;;;8.57;8.47;;;7.30;1.00;;;;;;5072056;28;20450;-80
2023/11/04 04:37:51;;;;;;;8.50;8.30;;;7.30;1.00;;;;;;5074085;28;20482;-80
2023/11/04 04:40:21;;;;;;;8.63;8.43;;;7.30;1.00;;;;;;5074645;28;20482;-81
2023/11/04 04:42:49;;;;;;;8.67;8.57;;;7.30;1.00;;;;;;5071438;28;20457;-81
2023/11/04 04:45:18;;;;;;;8.80;8.60;;;7.30;1.00;;;;;;5072611;28;20450;-81
2023/11/04 04:47:46;;;;;;;8.60;8.50;;;7.30;1.00;;;;;;5075554;28;20475;-81
2023/11/04 04:50:14;;;;;;;8.47;8.27;;;7.30;1.00;;;;;;5074980;28;20476;-80
2023/11/04 04:52:43;;;;;;;8.50;8.30;;;7.30;1.00;;;;;;5069397;28;20533;-80
2023/11/04 04:55:11;;;;;;;8.77;8.57;;;7.40;1.00;;;;;;5072987;28;20529;-79
2023/11/04 04:57:40;;;;;;;9.03;8.83;;;7.40;1.00;;;;;;5076676;28;20455;-77
2023/11/04 05:00:10;;;;;;;8.63;8.50;;;7.40;1.00;;;;;;5072093;28;20478;-78
2023/11/04 05:02:38;;;;;;;8.60;8.50;;;7.40;1.00;;;;;;5073759;28;20473;-80
2023/11/04 05:05:06;;;;;;;8.23;8.13;;;7.40;1.00;;;;;;5074626;28;20565;-78
2023/11/04 05:07:35;;;;;;;8.70;8.50;;;7.40;1.00;;;;;;5079149;28;20528;-79
2023/11/04 05:10:04;;;;;;;8.60;8.40;;;7.40;1.00;;;;;;5082923;28;20527;-81
2023/11/04 05:12:33;;;;;;;8.53;8.43;;;7.40;1.00;;;;;;5080560;28;20459;-79
2023/11/04 05:15:04;;;;;;;8.90;8.80;;;7.40;1.00;;;;;;5080874;28;20482;-79
2023/11/04 05:17:32;;;;;;;8.50;8.40;;;7.40;1.00;;;;;;5082268;28;20512;-79
2023/11/04 05:20:00;;;;;;;8.70;8.50;;;7.50;1.00;;;;;;5076530;28;20494;-80
2023/11/04 05:22:28;;;;;;;8.47;8.37;;;7.60;1.00;;;;;;5074215;28;21080;-80
2023/11/04 05:24:56;;;;;;;8.70;8.53;;;7.60;1.00;;;;;;5076314;28;20990;-82
2023/11/04 05:27:24;;;;;;;8.70;8.50;;;7.50;1.00;;;;;;5079403;28;20481;-78
2023/11/04 05:29:53;;;;;;;8.20;8.10;;;7.40;1.00;;;;;;5073907;28;20470;-81
2023/11/04 05:32:23;;;;;;;8.50;8.40;;;7.40;1.00;;;;;;5079159;28;20795;-81
2023/11/04 05:34:51;;;;;;;8.83;8.63;;;7.40;1.00;;;;;;5077288;28;20466;-79
2023/11/04 05:37:19;;;;;;;8.73;8.53;;;7.30;1.40;;;;;;5075289;28;21006;-79
2023/11/04 05:39:47;;;;;;;8.70;8.60;;;7.30;35.60;;;;;;5072366;28;20479;-78
2023/11/04 05:42:16;;;;;;;8.70;8.60;;;7.40;34.80;;;;;;5072286;28;20472;-77
2023/11/04 05:44:44;;;;;;;8.73;8.53;;;7.40;21.60;;;;;;5079815;28;20450;-78
2023/11/04 05:47:12;;;;;;;8.63;8.47;;;7.40;21.60;;;;;;5080512;28;21136;-78
2023/11/04 05:49:42;;;;;;;8.60;8.50;;;7.50;1.00;;;;;;5074806;28;20554;-77
2023/11/04 05:52:10;;;;;;;8.30;8.20;;;7.40;1.00;;;;;;5073341;28;20467;-78
2023/11/04 05:54:38;;;;;;;8.90;8.70;;;7.40;1.00;;;;;;5074750;28;20454;-77
2023/11/04 05:57:06;;;;;;;8.00;7.90;;;7.50;1.00;;;;;;5068706;28;22355;-77
2023/11/04 05:59:34;;;;;;;8.20;8.10;;;7.40;1.00;;;;;;5069969;28;21031;-78
2023/11/04 06:02:03;;;;;;;8.20;8.10;;;7.40;1.00;;;;;;5071339;28;20444;-77
2023/11/04 06:04:31;;;;;;;9.00;8.80;;;7.40;1.00;;;;;;5074326;28;20463;-79
2023/11/04 06:07:01;;;;;;;8.60;8.40;;;7.30;1.00;;;;;;5073927;28;20473;-83
2023/11/04 06:09:29;;;;;;;9.00;8.80;;;7.20;99.90;;;;;;5073304;28;20446;-79
2023/11/04 06:11:59;;;;;;;8.40;8.30;;;7.30;99.90;;;;;;5077240;28;20193;-80
2023/11/04 06:14:28;;;;;;;8.40;8.30;;;7.50;8.00;;;;;;5074986;28;20531;-78
2023/11/04 06:16:57;;;;;;;8.77;8.57;;;7.50;1.00;;;;;;5078872;28;20521;-79
2023/11/04 06:19:25;;;;;;;8.30;8.20;;;7.60;1.00;;;;;;5077774;28;20465;-79
2023/11/04 06:21:54;;;;;;;9.13;8.73;;;7.50;1.00;;;;;;5076077;28;20539;-82
2023/11/04 06:24:24;;;;;;;8.73;8.60;;;7.40;1.00;;;;;;5076306;28;20451;-81
2023/11/04 06:26:52;;;;;;;9.20;8.67;;;7.40;1.00;;;;;;5073202;28;20463;-78
2023/11/04 06:29:20;;;;;;;8.67;8.47;;;7.40;1.00;;;;;;5076982;28;20935;-80
2023/11/04 06:31:48;;;;;;;8.40;8.30;;;7.40;1.00;;;;;;5074514;28;20442;-78
2023/11/04 06:34:16;;;;;;;8.17;7.97;;;7.40;1.00;;;;;;5072933;28;21057;-78
2023/11/04 06:36:45;;;;;;;8.77;8.57;;;7.40;1.00;;;;;;5077081;28;20454;-79
2023/11/04 06:39:13;;;;;;;8.30;8.20;;;7.40;1.00;;;;;;5073555;28;20454;-77
2023/11/04 06:41:43;;;;;;;8.53;8.33;;;7.40;1.00;;;;;;5073721;28;20463;-80
2023/11/04 06:44:11;;;;;;;8.20;8.00;;;7.40;1.00;;;;;;5077668;28;20458;-80
2023/11/04 06:46:40;;;;;;;8.50;8.30;;;7.40;1.00;;;;;;5074586;28;20443;-79
2023/11/04 06:49:08;;;;;;;7.90;7.80;;;7.40;1.00;;;;;;5071038;28;20489;-79
2023/11/04 06:51:37;;;;;;;8.33;8.13;;;7.30;1.00;;;;;;5076776;28;20447;-78
2023/11/04 06:54:05;;;;;;;8.50;8.30;;;7.40;1.00;;;;;;5075511;28;20459;-80
2023/11/04 06:56:34;;;;;;;8.03;7.90;;;7.40;1.00;;;;;;5077911;28;20453;-80
2023/11/04 06:59:04;;;;;;;8.47;8.27;;;7.50;1.00;;;;;;5068835;28;20457;-80
2023/11/04 07:01:33;;;;;;;7.90;7.80;;;7.40;1.00;;;;;;5074235;28;21792;-79
2023/11/04 07:04:02;;;;;;;8.00;7.87;;;7.50;1.00;;;;;;5071976;28;20452;-78
2023/11/04 07:06:30;;;;;;;8.30;8.10;;;7.60;1.00;;;;;;5071881;28;20477;-77
2023/11/04 07:08:59;;;;;;;8.43;8.23;;;7.60;1.00;;;;;;5065349;28;20578;-78
2023/11/04 07:11:27;;;;;;;8.87;8.57;;;7.70;1.00;;;;;;5074179;28;20496;-77
2023/11/04 07:13:55;;;;;;;8.77;8.57;;;7.80;1.00;;;;;;5070790;28;20451;-79
2023/11/04 07:16:25;;;;;;;8.20;8.10;;;8.10;1.00;;;;;;5072383;28;20447;-79
2023/11/04 07:18:54;;;;;;;8.00;7.90;;;8.30;1.00;;;;;;5074439;28;20486;-78
2023/11/04 07:21:22;;;;;;;9.53;9.23;;;8.40;1.00;;;;;;5072590;28;20482;-81
2023/11/04 07:23:50;;;;;;;8.40;8.20;;;8.70;1.00;;;;;;5067529;28;20447;-78
2023/11/04 07:26:18;;;;;;;8.60;8.40;;;8.90;1.00;;;;;;5074467;28;20566;-79
2023/11/04 07:28:47;;;;;;;10.00;9.70;;;8.90;99.90;;;;;;5073946;28;21121;-80
2023/11/04 07:31:16;;;;;;;8.57;8.33;;;9.10;99.90;;;;;;5075678;28;20485;-77
2023/11/04 07:33:45;;;;;;;15.90;14.43;;;9.30;99.90;;;;;;5072453;28;20454;-78
2023/11/04 07:36:14;;;;;;;21.27;18.03;;;9.10;99.90;;;;;;5074455;28;20469;-80
2023/11/04 07:38:42;;;;;;;84.27;44.97;;;9.00;99.90;;;;;;5072223;28;20463;-80
2023/11/04 07:41:10;;;;;;;35.53;24.40;;;9.10;99.90;;;;;;5072218;28;20489;-79
2023/11/04 07:43:38;;;;;;;18.93;16.00;;;9.10;99.90;;;;;;5073515;28;20468;-78
2023/11/04 07:46:06;;;;;;;12.07;11.17;;;9.30;99.90;;;;;;5075779;28;20461;-79
2023/11/04 07:48:35;;;;;;;10.77;10.20;;;9.40;99.90;;;;;;5075483;28;20479;-80
2023/11/04 07:51:05;;;;;;;9.20;8.70;;;9.60;99.90;;;;;;5073215;28;20546;-80
2023/11/04 07:53:33;;;;;;;11.57;10.73;;;9.70;99.90;;;;;;5073754;28;20491;-79
2023/11/04 07:56:01;;;;;;;9.83;9.43;;;9.90;99.90;;;;;;5070717;28;20451;-77
2023/11/04 07:58:30;;;;;;;12.87;11.93;;;10.10;99.90;;;;;;5074132;28;20453;-79
2023/11/04 08:00:58;;;;;;;17.27;15.60;;;9.90;99.90;;;;;;5073415;28;20480;-78
2023/11/04 08:03:26;;;;;;;10.23;9.73;;;9.70;99.90;;;;;;5072707;28;20512;-82
2023/11/04 08:05:54;;;;;;;10.30;9.80;;;9.70;99.90;;;;;;5074629;28;20470;-78
2023/11/04 08:08:24;;;;;;;12.50;11.70;;;9.90;99.90;;;;;;5070992;28;20984;-79
2023/11/04 08:10:52;;;;;;;13.40;12.30;;;10.10;99.90;;;;;;5072947;28;20527;-83
2023/11/04 08:13:22;;;;;;;10.00;9.50;;;10.30;99.90;;;;;;5071490;28;20453;-81
2023/11/04 08:15:50;;;;;;;12.00;11.20;;;10.60;99.90;;;;;;5068546;28;20454;-82
2023/11/04 08:18:18;;;;;;;7.33;6.87;;;10.80;99.90;;;;;;5070007;28;20971;-82
2023/11/04 08:20:47;;;;;;;7.10;7.00;;;10.90;99.90;;;;;;5069968;28;20470;-81
2023/11/04 08:23:15;;;;;;;7.47;7.27;;;10.80;99.90;;;;;;5066329;28;20459;-82
2023/11/04 08:25:45;;;;;;;7.30;7.10;;;10.90;99.90;;;;;;5073905;28;20496;-82
2023/11/04 08:28:13;;;;;;;6.77;6.67;;;10.90;99.90;;;;;;5070735;28;20477;-83
2023/11/04 08:30:42;;;;;;;6.90;6.70;;;10.60;99.90;;;;;;5071168;28;20486;-82
2023/11/04 08:33:10;;;;;;;6.50;6.40;;;10.60;99.90;;;;;;5078012;28;20512;-81
2023/11/04 08:35:38;;;;;;;6.37;6.23;;;10.50;99.90;;;;;;5075534;28;20509;-80
2023/11/04 08:38:06;;;;;;;6.90;6.73;;;10.40;99.90;;;;;;5074383;28;21017;-81
2023/11/04 08:40:35;;;;;;;7.33;7.23;;;10.20;99.90;;;;;;5076701;28;20479;-81
2023/11/04 08:43:04;;;;;;;7.03;6.90;;;10.40;99.90;;;;;;5078822;28;21041;-82
2023/11/04 08:45:32;;;;;;;7.43;7.23;;;10.40;99.90;;;;;;5077913;28;20477;-82
2023/11/04 08:48:00;;;;;;;7.80;7.60;;;10.50;99.90;;;;;;5081369;28;21168;-81
2023/11/04 08:50:30;;;;;;;7.00;6.80;;;10.50;99.90;;;;;;5078864;28;20497;-81
2023/11/04 08:52:58;;;;;;;6.30;6.20;;;10.50;99.90;;;;;;5082400;28;20477;-82
2023/11/04 08:55:27;;;;;;;6.40;6.30;;;10.40;99.90;;;;;;5076586;28;20450;-81
2023/11/04 08:57:55;;;;;;;6.30;6.10;;;10.30;99.90;;;;;;5078430;28;20461;-81
2023/11/04 09:00:25;;;;;;;6.80;6.60;;;10.20;99.90;;;;;;5083385;28;20481;-82
2023/11/04 09:02:53;;;;;;;7.63;7.40;;;10.20;99.90;;;;;;5080447;28;20550;-81
2023/11/04 09:05:21;;;;;;;6.87;6.40;;;10.30;99.90;;;;;;5080745;28;20594;-82
2023/11/04 09:08:00;;;;;;;6.63;6.43;;;10.40;99.90;;;;;;5079512;28;21055;-82
2023/11/04 09:10:29;;;;;;;6.60;6.40;;;10.40;99.90;;;;;;5073705;28;20485;-81
2023/11/04 09:12:57;;;;;;;6.37;6.27;;;10.70;99.90;;;;;;5081127;28;20534;-82
2023/11/04 09:15:27;;;;;;;6.40;6.30;;;10.90;99.90;;;;;;5079396;28;20799;-83
2023/11/04 09:17:56;;;;;;;6.53;6.43;;;10.70;99.90;;;;;;5076786;28;20533;-82
2023/11/04 09:20:24;;;;;;;6.77;6.60;;;10.70;99.90;;;;;;5076035;28;20854;-81
2023/11/04 09:22:54;;;;;;;6.50;6.40;;;10.80;99.90;;;;;;5078939;28;20462;-82
2023/11/04 09:25:22;;;;;;;6.27;6.17;;;10.60;99.90;;;;;;5074310;28;20447;-81
2023/11/04 09:27:51;;;;;;;6.07;5.97;;;10.60;99.90;;;;;;5077376;28;20532;-81
2023/11/04 09:30:19;;;;;;;6.00;5.90;;;10.70;99.90;;;;;;5077992;28;21101;-83
2023/11/04 09:32:49;;;;;;;6.13;6.03;;;10.70;99.90;;;;;;5081375;28;20536;-82
2023/11/04 09:35:18;;;;;;;5.97;5.87;;;11.00;99.90;;;;;;5077274;28;20538;-83
2023/11/04 09:37:46;;;;;;;6.40;6.20;;;11.20;99.90;;;;;;5073247;28;20463;-81
2023/11/04 09:40:14;;;;;;;5.83;5.73;;;11.70;99.90;;;;;;5075443;28;21120;-81
2023/11/04 09:42:43;;;;;;;5.80;5.70;;;12.00;99.90;;;;;;5076004;28;21160;-82
2023/11/04 09:45:11;;;;;;;5.70;5.60;;;12.00;99.90;;;;;;5077643;28;20473;-82
2023/11/04 09:47:40;;;;;;;6.23;6.13;;;12.50;99.90;;;;;;5075027;28;20495;-83
2023/11/04 09:50:10;;;;;;;6.20;6.00;;;13.20;99.90;;;;;;5075905;28;20486;-82
2023/11/04 09:52:41;;;;;;;5.80;5.70;;;13.60;99.90;;;;;;5075649;28;20534;-80
2023/11/04 09:55:12;;;;;;;5.90;5.70;;;13.60;99.90;;;;;;5077939;28;20458;-83
2023/11/04 09:57:41;;;;;;;5.20;5.10;;;13.30;99.90;;;;;;5074808;28;20458;-82
2023/11/04 10:00:10;;;;;;;5.40;5.30;;;13.00;99.90;;;;;;5081868;28;20475;-83
2023/11/04 10:02:38;;;;;;;5.20;5.10;;;12.40;99.90;;;;;;5076153;28;20469;-81
2023/11/04 10:05:07;;;;;;;5.63;5.53;;;12.20;99.90;;;;;;5076688;28;20476;-81
2023/11/04 10:07:38;;;;;;;5.80;5.70;;;11.90;99.90;;;;;;5074941;28;20447;-81
2023/11/04 10:10:10;;;;;;;7.20;6.90;;;11.80;99.90;;;;;;5074647;28;20495;-83
2023/11/04 10:12:54;;;;;;;5.93;5.83;;;11.60;99.90;;;;;;5078207;28;20479;-82
2023/11/04 10:15:23;;;;;;;6.90;6.30;;;11.50;99.90;;;;;;5077795;28;21207;-83
2023/11/04 10:17:52;;;;;;;6.00;5.80;;;11.40;99.90;;;;;;5080483;28;20541;-83
2023/11/04 10:20:20;;;;;;;6.70;6.20;;;11.40;99.90;;;;;;5076348;28;20465;-82
2023/11/04 10:22:50;;;;;;;5.87;5.77;;;11.20;99.90;;;;;;5074134;28;20480;-82
2023/11/04 10:25:19;;;;;;;5.70;5.60;;;11.20;99.90;;;;;;5079458;28;20446;-82
2023/11/04 10:27:47;;;;;;;6.90;6.70;;;11.20;99.90;;;;;;5076026;28;20861;-82
2023/11/04 10:30:16;;;;;;;6.27;6.10;;;11.00;99.90;;;;;;5076634;28;20489;-81
2023/11/04 10:32:48;;;;;;;5.97;5.87;;;11.10;99.90;;;;;;5081698;28;20969;-80
2023/11/04 10:35:19;;;;;;;6.00;5.90;;;11.00;99.90;;;;;;5073850;28;20881;-82
2023/11/04 10:37:48;;;;;;;6.00;5.90;;;10.90;99.90;;;;;;5074910;28;20468;-81
2023/11/04 10:40:20;;;;;;;6.30;6.20;;;10.90;99.90;;;;;;5076447;28;20550;-83
2023/11/04 10:42:56;;;;;;;6.20;6.10;;;10.80;99.90;;;;;;5078689;28;20465;-83
2023/11/04 10:45:30;;;;;;;6.07;5.97;;;10.60;99.90;;;;;;5079074;28;20451;-82
2023/11/04 10:48:00;;;;;;;6.20;6.00;;;10.50;99.90;;;;;;5074267;28;20450;-81
2023/11/04 10:50:33;;;;;;;5.90;5.70;;;10.40;99.90;;;;;;5073176;28;20890;-82
2023/11/04 10:53:11;;;;;;;5.90;5.70;;;10.50;99.90;;;;;;5076658;28;20545;-82
2023/11/04 10:55:49;;;;;;;6.00;5.90;;;10.50;99.90;;;;;;5078584;28;20456;-81
2023/11/04 10:58:23;;;;;;;5.93;5.83;;;10.30;99.90;;;;;;5075477;28;20553;-80
2023/11/04 11:00:52;;;;;;;5.97;5.87;;;10.20;99.90;;;;;;5078902;28;20501;-81
2023/11/04 11:03:22;;;;;;;5.70;5.60;;;10.20;99.90;;;;;;5076346;28;20891;-81
2023/11/04 11:05:54;;;;;;;5.40;5.30;;;10.20;99.90;;;;;;5075803;28;20455;-83
2023/11/04 11:08:23;;;;;;;5.90;5.80;;;10.30;99.90;;;;;;5076008;28;20455;-82
2023/11/04 11:11:03;;;;;;;5.70;5.60;;;10.30;99.90;;;;;;5073793;28;20483;-80
2023/11/04 11:13:35;;;;;;;5.60;5.50;;;10.30;99.90;;;;;;5076619;28;20454;-80
2023/11/04 11:16:05;;;;;;;5.60;5.50;;;10.30;99.90;;;;;;5077056;28;20459;-82
2023/11/04 11:18:33;;;;;;;5.30;5.20;;;10.30;99.90;;;;;;5076463;28;20463;-81
2023/11/04 11:21:11;;;;;;;5.40;5.20;;;10.30;99.90;;;;;;5073434;28;20475;-81
2023/11/04 11:23:40;;;;;;;4.97;4.87;;;10.30;99.90;;;;;;5075575;28;20454;-80
2023/11/04 11:26:11;;;;;;;5.50;5.40;;;10.30;99.90;;;;;;5075648;28;20496;-83
2023/11/04 11:28:42;;;;;;;5.77;5.60;;;10.30;99.90;;;;;;5078129;28;20867;-79
2023/11/04 11:31:11;;;;;;;5.60;5.50;;;10.30;99.90;;;;;;5077373;28;20475;-80
2023/11/04 11:33:41;;;;;;;5.30;5.20;;;10.30;99.90;;;;;;5078619;28;20455;-81
2023/11/04 11:36:13;;;;;;;5.20;5.10;;;10.30;99.90;;;;;;5070508;28;20557;-81
2023/11/04 11:38:44;;;;;;;5.67;5.57;;;10.30;99.90;;;;;;5071360;28;21096;-81
2023/11/04 11:41:15;;;;;;;4.90;4.80;;;10.40;99.90;;;;;;5075747;28;20845;-81
2023/11/04 11:43:46;;;;;;;5.17;5.07;;;10.40;99.90;;;;;;5073281;28;20463;-79
2023/11/04 11:46:14;;;;;;;5.33;5.20;;;10.30;99.90;;;;;;5072489;28;20459;-83
2023/11/04 11:48:44;;;;;;;5.67;5.57;;;10.20;99.90;;;;;;5073396;28;20446;-83
2023/11/04 11:51:15;;;;;;;5.10;5.00;;;10.20;99.90;;;;;;5071357;28;20483;-82
2023/11/04 11:53:44;;;;;;;5.13;4.93;;;10.10;99.90;;;;;;5074718;28;20454;-83
2023/11/04 11:56:15;;;;;;;5.00;4.90;;;10.10;99.90;;;;;;5076034;28;20512;-81
2023/11/04 11:58:45;;;;;;;5.30;5.20;;;10.10;99.90;;;;;;5078943;28;20455;-81
2023/11/04 12:01:13;;;;;;;5.17;5.07;;;10.10;99.90;;;;;;5076217;28;21463;-82
2023/11/04 12:03:43;;;;;;;4.70;4.60;;;10.20;99.90;;;;;;5078186;28;20430;-83
2023/11/04 12:06:13;;;;;;;5.60;5.50;;;10.10;99.90;;;;;;5074590;28;20968;-83
2023/11/04 12:08:41;;;;;;;5.80;5.70;;;10.20;99.90;;;;;;5074733;28;20447;-83
2023/11/04 12:11:09;;;;;;;5.27;5.17;;;10.30;99.90;;;;;;5081800;28;20484;-83
2023/11/04 12:13:39;;;;;;;5.30;5.20;;;10.30;99.90;;;;;;5082311;28;20980;-80
2023/11/04 12:16:08;;;;;;;5.50;5.40;;;10.30;99.90;;;;;;5078139;28;20477;-82
2023/11/04 12:18:37;;;;;;;10.90;10.10;;;10.30;99.90;;;;;;5079439;28;20463;-83
2023/11/04 12:21:10;;;;;;;17.33;15.83;;;10.30;99.90;;;;;;5076411;28;20467;-83
2023/11/04 12:23:39;;;;;;;5.90;5.80;;;10.40;99.90;;;;;;5071288;28;20461;-82
2023/11/04 12:26:07;;;;;;;5.80;5.60;;;10.40;99.90;;;;;;5083874;28;20448;-82
2023/11/04 12:28:37;;;;;;;5.20;5.10;;;10.50;99.90;;;;;;5079155;28;20447;-80
2023/11/04 12:31:07;;;;;;;4.90;4.80;;;10.50;99.90;;;;;;5076324;28;20488;-82
2023/11/04 12:33:37;;;;;;;4.80;4.70;;;10.50;99.90;;;;;;5075989;28;20452;-81
2023/11/04 12:36:07;;;;;;;5.60;5.50;;;10.50;99.90;;;;;;5079927;28;20927;-81
2023/11/04 12:38:36;;;;;;;4.90;4.80;;;10.40;99.90;;;;;;5067910;28;20510;-81
2023/11/04 12:41:09;;;;;;;5.33;5.03;;;10.40;99.90;;;;;;5080301;28;20466;-82
2023/11/04 12:43:38;;;;;;;12.83;11.70;;;10.40;99.90;;;;;;5080217;28;20982;-83
2023/11/04 12:46:10;;;;;;;7.53;7.13;;;10.40;99.90;;;;;;5082503;28;20467;-80
2023/11/04 12:48:38;;;;;;;6.07;5.87;;;10.40;99.90;;;;;;5080561;28;20446;-83
2023/11/04 12:51:08;;;;;;;5.33;5.20;;;10.50;99.90;;;;;;5081020;28;20566;-82
2023/11/04 12:53:40;;;;;;;6.10;5.90;;;10.50;99.90;;;;;;5076922;28;20454;-79
2023/11/04 12:56:09;;;;;;;5.40;5.30;;;10.50;99.90;;;;;;5076272;28;20504;-83
2023/11/04 12:58:39;;;;;;;7.93;7.30;;;10.50;99.90;;;;;;5071603;28;20476;-79
2023/11/04 13:01:10;;;;;;;7.77;7.47;;;10.50;99.90;;;;;;5071192;28;20467;-79
2023/11/04 13:03:39;;;;;;;6.80;6.60;;;10.50;99.90;;;;;;5073562;28;20446;-78
2023/11/04 13:06:08;;;;;;;5.90;5.80;;;10.50;99.90;;;;;;5075432;28;20970;-84